sensor_id;sensor_type;location;lat;lon;timestamp;P1;durP1;ratioP1;P2;durP2;ratioP2
77520;SDS011;66633;47.628;19.158;2023-03-02T00:01:39;12.55;;;5.10;;
77520;SDS011;66633;47.628;19.158;2023-03-02T00:04:06;8.77;;;3.60;;
77520;SDS011;66633;47.628;19.158;2023-03-02T00:06:32;14.40;;;6.68;;
77520;SDS011;66633;47.628;19.158;2023-03-02T00:08:58;16.70;;;8.13;;
77520;SDS011;66633;47.628;19.158;2023-03-02T00:11:27;11.45;;;5.07;;
77520;SDS011;66633;47.628;19.158;2023-03-02T00:13:52;10.75;;;4.30;;
77520;SDS011;66633;47.628;19.158;2023-03-02T00:16:18;14.95;;;6.00;;
77520;SDS011;66633;47.628;19.158;2023-03-02T00:18:43;10.97;;;4.70;;
77520;SDS011;66633;47.628;19.158;2023-03-02T00:21:09;11.13;;;4.97;;
77520;SDS011;66633;47.628;19.158;2023-03-02T00:23:34;14.80;;;6.43;;
77520;SDS011;66633;47.628;19.158;2023-03-02T00:25:59;15.50;;;7.00;;
77520;SDS011;66633;47.628;19.158;2023-03-02T00:28:24;15.00;;;6.63;;
77520;SDS011;66633;47.628;19.158;2023-03-02T00:30:50;15.53;;;6.53;;
77520;SDS011;66633;47.628;19.158;2023-03-02T00:33:15;15.13;;;7.03;;
77520;SDS011;66633;47.628;19.158;2023-03-02T00:35:40;21.53;;;10.10;;
77520;SDS011;66633;47.628;19.158;2023-03-02T00:38:06;16.83;;;7.50;;
77520;SDS011;66633;47.628;19.158;2023-03-02T00:40:32;21.48;;;9.13;;
77520;SDS011;66633;47.628;19.158;2023-03-02T00:42:57;14.05;;;5.82;;
77520;SDS011;66633;47.628;19.158;2023-03-02T00:45:22;30.30;;;12.50;;
77520;SDS011;66633;47.628;19.158;2023-03-02T00:47:47;27.73;;;13.27;;
77520;SDS011;66633;47.628;19.158;2023-03-02T00:50:13;20.40;;;10.07;;
77520;SDS011;66633;47.628;19.158;2023-03-02T00:52:38;34.87;;;17.13;;
77520;SDS011;66633;47.628;19.158;2023-03-02T00:55:03;29.97;;;14.47;;
77520;SDS011;66633;47.628;19.158;2023-03-02T00:57:29;36.05;;;16.40;;
77520;SDS011;66633;47.628;19.158;2023-03-02T00:59:54;37.73;;;17.53;;
77520;SDS011;66633;47.628;19.158;2023-03-02T01:02:19;48.50;;;21.40;;
77520;SDS011;66633;47.628;19.158;2023-03-02T01:04:45;39.20;;;18.70;;
77520;SDS011;66633;47.628;19.158;2023-03-02T01:07:13;53.97;;;22.90;;
77520;SDS011;66633;47.628;19.158;2023-03-02T01:09:40;36.95;;;15.82;;
77520;SDS011;66633;47.628;19.158;2023-03-02T01:12:06;44.70;;;20.92;;
77520;SDS011;66633;47.628;19.158;2023-03-02T01:14:34;43.47;;;19.23;;
77520;SDS011;66633;47.628;19.158;2023-03-02T01:16:59;36.08;;;16.20;;
77520;SDS011;66633;47.628;19.158;2023-03-02T01:19:25;37.97;;;17.27;;
77520;SDS011;66633;47.628;19.158;2023-03-02T01:21:50;41.60;;;16.77;;
77520;SDS011;66633;47.628;19.158;2023-03-02T01:24:15;31.77;;;14.68;;
77520;SDS011;66633;47.628;19.158;2023-03-02T01:26:40;32.40;;;14.73;;
77520;SDS011;66633;47.628;19.158;2023-03-02T01:29:06;27.70;;;11.77;;
77520;SDS011;66633;47.628;19.158;2023-03-02T01:31:31;35.27;;;15.57;;
77520;SDS011;66633;47.628;19.158;2023-03-02T01:33:56;19.93;;;10.00;;
77520;SDS011;66633;47.628;19.158;2023-03-02T01:36:22;27.80;;;11.87;;
77520;SDS011;66633;47.628;19.158;2023-03-02T01:38:47;21.23;;;9.80;;
77520;SDS011;66633;47.628;19.158;2023-03-02T01:41:13;26.60;;;13.98;;
77520;SDS011;66633;47.628;19.158;2023-03-02T01:43:38;28.63;;;13.40;;
77520;SDS011;66633;47.628;19.158;2023-03-02T01:46:05;25.23;;;11.82;;
77520;SDS011;66633;47.628;19.158;2023-03-02T01:48:33;23.27;;;11.30;;
77520;SDS011;66633;47.628;19.158;2023-03-02T01:50:59;23.70;;;10.82;;
77520;SDS011;66633;47.628;19.158;2023-03-02T01:53:26;19.58;;;9.52;;
77520;SDS011;66633;47.628;19.158;2023-03-02T01:55:52;22.35;;;11.25;;
77520;SDS011;66633;47.628;19.158;2023-03-02T01:58:18;21.77;;;10.65;;
77520;SDS011;66633;47.628;19.158;2023-03-02T02:00:44;22.33;;;10.45;;
77520;SDS011;66633;47.628;19.158;2023-03-02T02:03:11;23.60;;;11.65;;
77520;SDS011;66633;47.628;19.158;2023-03-02T02:05:39;23.67;;;10.52;;
77520;SDS011;66633;47.628;19.158;2023-03-02T02:08:05;28.50;;;10.95;;
77520;SDS011;66633;47.628;19.158;2023-03-02T02:10:31;17.25;;;8.95;;
77520;SDS011;66633;47.628;19.158;2023-03-02T02:12:57;17.73;;;8.15;;
77520;SDS011;66633;47.628;19.158;2023-03-02T02:15:22;18.65;;;8.98;;
77520;SDS011;66633;47.628;19.158;2023-03-02T02:17:47;20.95;;;9.75;;
77520;SDS011;66633;47.628;19.158;2023-03-02T02:28:10;22.30;;;10.85;;
77520;SDS011;66633;47.628;19.158;2023-03-02T02:30:36;15.32;;;7.53;;
77520;SDS011;66633;47.628;19.158;2023-03-02T02:33:03;18.83;;;9.13;;
77520;SDS011;66633;47.628;19.158;2023-03-02T02:35:29;17.25;;;7.80;;
77520;SDS011;66633;47.628;19.158;2023-03-02T02:37:58;22.25;;;10.43;;
77520;SDS011;66633;47.628;19.158;2023-03-02T02:43:03;25.45;;;11.27;;
77520;SDS011;66633;47.628;19.158;2023-03-02T02:45:29;19.63;;;8.90;;
77520;SDS011;66633;47.628;19.158;2023-03-02T02:47:54;21.50;;;10.23;;
77520;SDS011;66633;47.628;19.158;2023-03-02T02:50:24;17.10;;;7.60;;
77520;SDS011;66633;47.628;19.158;2023-03-02T02:52:52;17.35;;;7.88;;
77520;SDS011;66633;47.628;19.158;2023-03-02T02:55:20;18.83;;;8.05;;
77520;SDS011;66633;47.628;19.158;2023-03-02T02:57:46;20.40;;;9.07;;
77520;SDS011;66633;47.628;19.158;2023-03-02T03:00:14;22.83;;;9.23;;
77520;SDS011;66633;47.628;19.158;2023-03-02T03:02:42;17.50;;;7.97;;
77520;SDS011;66633;47.628;19.158;2023-03-02T03:05:14;21.95;;;9.32;;
77520;SDS011;66633;47.628;19.158;2023-03-02T03:07:39;22.00;;;8.68;;
77520;SDS011;66633;47.628;19.158;2023-03-02T03:10:10;20.37;;;9.77;;
77520;SDS011;66633;47.628;19.158;2023-03-02T03:12:38;21.90;;;9.98;;
77520;SDS011;66633;47.628;19.158;2023-03-02T03:15:04;19.20;;;9.38;;
77520;SDS011;66633;47.628;19.158;2023-03-02T03:17:30;30.38;;;9.95;;
77520;SDS011;66633;47.628;19.158;2023-03-02T03:19:55;22.17;;;10.33;;
77520;SDS011;66633;47.628;19.158;2023-03-02T03:22:30;23.30;;;11.10;;
77520;SDS011;66633;47.628;19.158;2023-03-02T03:24:55;18.58;;;9.30;;
77520;SDS011;66633;47.628;19.158;2023-03-02T03:27:20;19.77;;;9.30;;
77520;SDS011;66633;47.628;19.158;2023-03-02T03:29:46;17.77;;;8.63;;
77520;SDS011;66633;47.628;19.158;2023-03-02T03:32:14;22.00;;;9.55;;
77520;SDS011;66633;47.628;19.158;2023-03-02T03:34:40;17.90;;;8.57;;
77520;SDS011;66633;47.628;19.158;2023-03-02T03:37:09;25.30;;;9.23;;
77520;SDS011;66633;47.628;19.158;2023-03-02T03:39:35;22.73;;;9.50;;
77520;SDS011;66633;47.628;19.158;2023-03-02T03:42:00;22.05;;;10.07;;
77520;SDS011;66633;47.628;19.158;2023-03-02T03:44:25;17.83;;;8.85;;
77520;SDS011;66633;47.628;19.158;2023-03-02T03:46:51;19.67;;;9.20;;
77520;SDS011;66633;47.628;19.158;2023-03-02T03:49:16;17.38;;;8.57;;
77520;SDS011;66633;47.628;19.158;2023-03-02T03:51:41;21.80;;;9.53;;
77520;SDS011;66633;47.628;19.158;2023-03-02T03:54:07;18.35;;;8.38;;
77520;SDS011;66633;47.628;19.158;2023-03-02T03:56:34;18.70;;;8.18;;
77520;SDS011;66633;47.628;19.158;2023-03-02T03:58:59;19.30;;;8.52;;
77520;SDS011;66633;47.628;19.158;2023-03-02T04:04:00;18.23;;;8.07;;
77520;SDS011;66633;47.628;19.158;2023-03-02T04:06:26;17.20;;;7.75;;
77520;SDS011;66633;47.628;19.158;2023-03-02T04:08:51;17.77;;;6.22;;
77520;SDS011;66633;47.628;19.158;2023-03-02T04:11:16;19.83;;;8.60;;
77520;SDS011;66633;47.628;19.158;2023-03-02T04:13:42;21.45;;;10.10;;
77520;SDS011;66633;47.628;19.158;2023-03-02T04:16:07;18.93;;;8.70;;
77520;SDS011;66633;47.628;19.158;2023-03-02T04:18:32;20.10;;;8.75;;
77520;SDS011;66633;47.628;19.158;2023-03-02T04:20:58;17.20;;;8.33;;
77520;SDS011;66633;47.628;19.158;2023-03-02T04:23:23;11.63;;;5.13;;
77520;SDS011;66633;47.628;19.158;2023-03-02T04:25:48;14.30;;;6.53;;
77520;SDS011;66633;47.628;19.158;2023-03-02T04:28:13;11.97;;;4.87;;
77520;SDS011;66633;47.628;19.158;2023-03-02T04:30:41;10.48;;;4.32;;
77520;SDS011;66633;47.628;19.158;2023-03-02T04:33:06;12.30;;;4.70;;
77520;SDS011;66633;47.628;19.158;2023-03-02T04:35:31;14.23;;;6.20;;
77520;SDS011;66633;47.628;19.158;2023-03-02T04:37:56;10.43;;;3.97;;
77520;SDS011;66633;47.628;19.158;2023-03-02T04:40:22;11.48;;;4.10;;
77520;SDS011;66633;47.628;19.158;2023-03-02T04:42:47;10.40;;;5.22;;
77520;SDS011;66633;47.628;19.158;2023-03-02T04:45:13;15.30;;;6.97;;
77520;SDS011;66633;47.628;19.158;2023-03-02T04:47:38;14.60;;;5.97;;
77520;SDS011;66633;47.628;19.158;2023-03-02T04:50:04;18.52;;;7.68;;
77520;SDS011;66633;47.628;19.158;2023-03-02T04:52:29;13.57;;;6.78;;
77520;SDS011;66633;47.628;19.158;2023-03-02T04:54:55;13.63;;;6.37;;
77520;SDS011;66633;47.628;19.158;2023-03-02T04:57:20;17.48;;;7.15;;
77520;SDS011;66633;47.628;19.158;2023-03-02T04:59:45;17.10;;;7.40;;
77520;SDS011;66633;47.628;19.158;2023-03-02T05:02:11;14.33;;;6.60;;
77520;SDS011;66633;47.628;19.158;2023-03-02T05:04:36;11.50;;;4.60;;
77520;SDS011;66633;47.628;19.158;2023-03-02T05:07:01;9.77;;;3.90;;
77520;SDS011;66633;47.628;19.158;2023-03-02T05:09:27;10.50;;;4.03;;
77520;SDS011;66633;47.628;19.158;2023-03-02T05:11:55;11.38;;;4.20;;
77520;SDS011;66633;47.628;19.158;2023-03-02T05:14:20;13.82;;;6.68;;
77520;SDS011;66633;47.628;19.158;2023-03-02T05:16:46;15.45;;;6.80;;
77520;SDS011;66633;47.628;19.158;2023-03-02T05:19:11;17.73;;;7.93;;
77520;SDS011;66633;47.628;19.158;2023-03-02T05:21:36;23.30;;;10.77;;
77520;SDS011;66633;47.628;19.158;2023-03-02T05:24:02;23.40;;;11.95;;
77520;SDS011;66633;47.628;19.158;2023-03-02T05:26:28;30.65;;;15.75;;
77520;SDS011;66633;47.628;19.158;2023-03-02T05:28:53;29.48;;;17.95;;
77520;SDS011;66633;47.628;19.158;2023-03-02T05:31:23;22.97;;;12.10;;
77520;SDS011;66633;47.628;19.158;2023-03-02T05:33:51;21.35;;;10.38;;
77520;SDS011;66633;47.628;19.158;2023-03-02T05:36:16;16.93;;;7.00;;
77520;SDS011;66633;47.628;19.158;2023-03-02T05:38:41;16.67;;;6.88;;
77520;SDS011;66633;47.628;19.158;2023-03-02T05:41:07;15.57;;;6.67;;
77520;SDS011;66633;47.628;19.158;2023-03-02T05:43:32;14.97;;;6.40;;
77520;SDS011;66633;47.628;19.158;2023-03-02T05:45:57;15.85;;;7.05;;
77520;SDS011;66633;47.628;19.158;2023-03-02T05:48:27;8.82;;;3.90;;
77520;SDS011;66633;47.628;19.158;2023-03-02T05:50:53;12.75;;;4.78;;
77520;SDS011;66633;47.628;19.158;2023-03-02T05:53:19;20.40;;;8.25;;
77520;SDS011;66633;47.628;19.158;2023-03-02T05:55:44;20.88;;;9.18;;
77520;SDS011;66633;47.628;19.158;2023-03-02T05:58:11;24.00;;;9.75;;
77520;SDS011;66633;47.628;19.158;2023-03-02T06:00:38;22.77;;;9.35;;
77520;SDS011;66633;47.628;19.158;2023-03-02T06:03:03;34.40;;;12.20;;
77520;SDS011;66633;47.628;19.158;2023-03-02T06:05:29;24.87;;;10.10;;
77520;SDS011;66633;47.628;19.158;2023-03-02T06:07:54;22.83;;;10.07;;
77520;SDS011;66633;47.628;19.158;2023-03-02T06:10:20;18.85;;;7.47;;
77520;SDS011;66633;47.628;19.158;2023-03-02T06:12:45;16.65;;;7.70;;
77520;SDS011;66633;47.628;19.158;2023-03-02T06:15:10;16.20;;;7.20;;
77520;SDS011;66633;47.628;19.158;2023-03-02T06:17:36;17.05;;;7.25;;
77520;SDS011;66633;47.628;19.158;2023-03-02T06:20:01;17.47;;;7.63;;
77520;SDS011;66633;47.628;19.158;2023-03-02T06:22:29;15.85;;;6.50;;
77520;SDS011;66633;47.628;19.158;2023-03-02T06:24:54;17.20;;;7.27;;
77520;SDS011;66633;47.628;19.158;2023-03-02T06:27:19;18.08;;;7.68;;
77520;SDS011;66633;47.628;19.158;2023-03-02T06:29:45;18.35;;;8.13;;
77520;SDS011;66633;47.628;19.158;2023-03-02T06:32:10;18.00;;;8.07;;
77520;SDS011;66633;47.628;19.158;2023-03-02T06:34:35;48.42;;;21.15;;
77520;SDS011;66633;47.628;19.158;2023-03-02T06:37:01;80.10;;;30.87;;
77520;SDS011;66633;47.628;19.158;2023-03-02T06:39:26;30.27;;;14.05;;
77520;SDS011;66633;47.628;19.158;2023-03-02T06:41:51;25.45;;;10.52;;
77520;SDS011;66633;47.628;19.158;2023-03-02T06:44:17;20.53;;;9.47;;
77520;SDS011;66633;47.628;19.158;2023-03-02T06:46:43;21.42;;;8.30;;
77520;SDS011;66633;47.628;19.158;2023-03-02T06:49:13;37.97;;;15.25;;
77520;SDS011;66633;47.628;19.158;2023-03-02T06:51:39;166.17;;;47.23;;
77520;SDS011;66633;47.628;19.158;2023-03-02T06:54:04;89.17;;;27.33;;
77520;SDS011;66633;47.628;19.158;2023-03-02T06:56:31;31.00;;;12.35;;
77520;SDS011;66633;47.628;19.158;2023-03-02T06:58:57;37.35;;;14.57;;
77520;SDS011;66633;47.628;19.158;2023-03-02T07:01:22;47.90;;;18.23;;
77520;SDS011;66633;47.628;19.158;2023-03-02T07:03:47;65.80;;;24.23;;
77520;SDS011;66633;47.628;19.158;2023-03-02T07:06:12;47.90;;;17.55;;
77520;SDS011;66633;47.628;19.158;2023-03-02T07:08:38;26.70;;;10.82;;
77520;SDS011;66633;47.628;19.158;2023-03-02T07:11:04;19.52;;;8.68;;
77520;SDS011;66633;47.628;19.158;2023-03-02T07:13:29;21.20;;;8.50;;
77520;SDS011;66633;47.628;19.158;2023-03-02T07:15:55;23.27;;;8.90;;
77520;SDS011;66633;47.628;19.158;2023-03-02T07:18:20;22.30;;;9.20;;
77520;SDS011;66633;47.628;19.158;2023-03-02T07:20:46;17.55;;;7.20;;
77520;SDS011;66633;47.628;19.158;2023-03-02T07:23:11;16.73;;;7.40;;
77520;SDS011;66633;47.628;19.158;2023-03-02T07:25:36;17.60;;;6.97;;
77520;SDS011;66633;47.628;19.158;2023-03-02T07:28:02;16.88;;;7.40;;
77520;SDS011;66633;47.628;19.158;2023-03-02T07:30:27;15.45;;;7.78;;
77520;SDS011;66633;47.628;19.158;2023-03-02T07:32:52;21.17;;;8.53;;
77520;SDS011;66633;47.628;19.158;2023-03-02T07:35:17;110.70;;;29.83;;
77520;SDS011;66633;47.628;19.158;2023-03-02T07:37:43;29.90;;;10.38;;
77520;SDS011;66633;47.628;19.158;2023-03-02T07:40:09;19.05;;;8.32;;
77520;SDS011;66633;47.628;19.158;2023-03-02T07:42:35;19.58;;;8.23;;
77520;SDS011;66633;47.628;19.158;2023-03-02T07:45:00;17.20;;;7.72;;
77520;SDS011;66633;47.628;19.158;2023-03-02T07:47:26;14.85;;;5.60;;
77520;SDS011;66633;47.628;19.158;2023-03-02T07:49:51;11.70;;;6.40;;
77520;SDS011;66633;47.628;19.158;2023-03-02T07:52:16;15.63;;;6.80;;
77520;SDS011;66633;47.628;19.158;2023-03-02T07:54:42;13.68;;;6.15;;
77520;SDS011;66633;47.628;19.158;2023-03-02T07:57:07;14.75;;;6.18;;
77520;SDS011;66633;47.628;19.158;2023-03-02T07:59:32;15.90;;;5.93;;
77520;SDS011;66633;47.628;19.158;2023-03-02T08:01:57;12.50;;;5.22;;
77520;SDS011;66633;47.628;19.158;2023-03-02T08:04:23;13.53;;;6.60;;
77520;SDS011;66633;47.628;19.158;2023-03-02T08:06:48;14.30;;;6.50;;
77520;SDS011;66633;47.628;19.158;2023-03-02T08:09:14;17.98;;;6.22;;
77520;SDS011;66633;47.628;19.158;2023-03-02T08:11:40;19.00;;;7.13;;
77520;SDS011;66633;47.628;19.158;2023-03-02T08:14:05;14.75;;;6.45;;
77520;SDS011;66633;47.628;19.158;2023-03-02T08:16:31;13.23;;;6.13;;
77520;SDS011;66633;47.628;19.158;2023-03-02T08:18:56;14.10;;;5.40;;
77520;SDS011;66633;47.628;19.158;2023-03-02T08:21:22;14.47;;;5.93;;
77520;SDS011;66633;47.628;19.158;2023-03-02T08:23:48;11.95;;;5.35;;
77520;SDS011;66633;47.628;19.158;2023-03-02T08:26:14;14.95;;;6.13;;
77520;SDS011;66633;47.628;19.158;2023-03-02T08:28:39;15.50;;;6.10;;
77520;SDS011;66633;47.628;19.158;2023-03-02T08:31:05;15.43;;;5.65;;
77520;SDS011;66633;47.628;19.158;2023-03-02T08:33:30;12.07;;;5.50;;
77520;SDS011;66633;47.628;19.158;2023-03-02T08:35:56;9.60;;;4.23;;
77520;SDS011;66633;47.628;19.158;2023-03-02T08:38:22;10.02;;;5.40;;
77520;SDS011;66633;47.628;19.158;2023-03-02T08:40:48;11.60;;;5.00;;
77520;SDS011;66633;47.628;19.158;2023-03-02T08:43:15;10.75;;;4.90;;
77520;SDS011;66633;47.628;19.158;2023-03-02T08:45:40;11.20;;;5.15;;
77520;SDS011;66633;47.628;19.158;2023-03-02T08:48:05;11.82;;;5.25;;
77520;SDS011;66633;47.628;19.158;2023-03-02T08:50:31;10.50;;;4.87;;
77520;SDS011;66633;47.628;19.158;2023-03-02T08:52:56;12.17;;;5.40;;
77520;SDS011;66633;47.628;19.158;2023-03-02T08:55:21;15.63;;;5.27;;
77520;SDS011;66633;47.628;19.158;2023-03-02T08:57:46;10.13;;;4.37;;
77520;SDS011;66633;47.628;19.158;2023-03-02T09:00:13;10.65;;;4.63;;
77520;SDS011;66633;47.628;19.158;2023-03-02T09:02:40;10.07;;;4.75;;
77520;SDS011;66633;47.628;19.158;2023-03-02T09:05:05;8.68;;;4.13;;
77520;SDS011;66633;47.628;19.158;2023-03-02T09:07:31;8.77;;;4.00;;
77520;SDS011;66633;47.628;19.158;2023-03-02T09:09:56;11.02;;;5.00;;
77520;SDS011;66633;47.628;19.158;2023-03-02T09:12:21;9.27;;;4.40;;
77520;SDS011;66633;47.628;19.158;2023-03-02T09:14:46;10.57;;;4.43;;
77520;SDS011;66633;47.628;19.158;2023-03-02T09:17:12;8.35;;;3.65;;
77520;SDS011;66633;47.628;19.158;2023-03-02T09:19:39;7.88;;;3.35;;
77520;SDS011;66633;47.628;19.158;2023-03-02T09:22:09;6.82;;;2.92;;
77520;SDS011;66633;47.628;19.158;2023-03-02T09:24:36;7.43;;;2.80;;
77520;SDS011;66633;47.628;19.158;2023-03-02T09:27:01;6.18;;;2.58;;
77520;SDS011;66633;47.628;19.158;2023-03-02T09:29:27;6.82;;;2.67;;
77520;SDS011;66633;47.628;19.158;2023-03-02T09:31:52;7.97;;;3.30;;
77520;SDS011;66633;47.628;19.158;2023-03-02T09:34:17;7.18;;;3.50;;
77520;SDS011;66633;47.628;19.158;2023-03-02T09:36:43;7.53;;;3.40;;
77520;SDS011;66633;47.628;19.158;2023-03-02T09:39:08;7.63;;;3.03;;
77520;SDS011;66633;47.628;19.158;2023-03-02T09:47:02;8.43;;;3.83;;
77520;SDS011;66633;47.628;19.158;2023-03-02T09:54:42;9.07;;;3.97;;
77520;SDS011;66633;47.628;19.158;2023-03-02T09:57:17;10.45;;;4.03;;
77520;SDS011;66633;47.628;19.158;2023-03-02T09:59:44;9.30;;;3.95;;
77520;SDS011;66633;47.628;19.158;2023-03-02T10:04:40;8.93;;;4.13;;
77520;SDS011;66633;47.628;19.158;2023-03-02T10:07:12;8.65;;;4.10;;
77520;SDS011;66633;47.628;19.158;2023-03-02T10:09:38;9.82;;;4.32;;
77520;SDS011;66633;47.628;19.158;2023-03-02T10:14:33;8.40;;;4.45;;
77520;SDS011;66633;47.628;19.158;2023-03-02T10:17:16;8.85;;;4.10;;
77520;SDS011;66633;47.628;19.158;2023-03-02T10:19:44;10.52;;;4.88;;
77520;SDS011;66633;47.628;19.158;2023-03-02T10:24:43;14.63;;;4.38;;
77520;SDS011;66633;47.628;19.158;2023-03-02T10:32:06;9.50;;;4.70;;
77520;SDS011;66633;47.628;19.158;2023-03-02T10:34:37;8.38;;;4.68;;
77520;SDS011;66633;47.628;19.158;2023-03-02T10:37:04;10.40;;;4.93;;
77520;SDS011;66633;47.628;19.158;2023-03-02T10:39:34;9.50;;;4.78;;
77520;SDS011;66633;47.628;19.158;2023-03-02T10:42:01;9.27;;;5.00;;
77520;SDS011;66633;47.628;19.158;2023-03-02T10:44:31;10.85;;;4.85;;
77520;SDS011;66633;47.628;19.158;2023-03-02T10:47:01;9.60;;;4.93;;
77520;SDS011;66633;47.628;19.158;2023-03-02T10:51:55;10.07;;;4.50;;
77520;SDS011;66633;47.628;19.158;2023-03-02T10:54:21;10.00;;;5.45;;
77520;SDS011;66633;47.628;19.158;2023-03-02T10:56:47;19.40;;;10.93;;
77520;SDS011;66633;47.628;19.158;2023-03-02T11:01:58;10.65;;;5.53;;
77520;SDS011;66633;47.628;19.158;2023-03-02T11:04:24;9.10;;;4.97;;
77520;SDS011;66633;47.628;19.158;2023-03-02T11:06:49;14.38;;;6.03;;
77520;SDS011;66633;47.628;19.158;2023-03-02T11:09:14;10.30;;;5.20;;
77520;SDS011;66633;47.628;19.158;2023-03-02T11:11:40;8.57;;;4.93;;
77520;SDS011;66633;47.628;19.158;2023-03-02T11:14:15;8.23;;;4.35;;
77520;SDS011;66633;47.628;19.158;2023-03-02T11:16:41;9.35;;;4.80;;
77520;SDS011;66633;47.628;19.158;2023-03-02T11:19:10;8.70;;;4.82;;
77520;SDS011;66633;47.628;19.158;2023-03-02T11:21:38;9.80;;;6.10;;
77520;SDS011;66633;47.628;19.158;2023-03-02T11:26:49;9.90;;;5.77;;
77520;SDS011;66633;47.628;19.158;2023-03-02T11:32:04;16.75;;;9.52;;
77520;SDS011;66633;47.628;19.158;2023-03-02T11:34:33;10.07;;;5.80;;
77520;SDS011;66633;47.628;19.158;2023-03-02T11:37:00;11.82;;;6.00;;
77520;SDS011;66633;47.628;19.158;2023-03-02T11:39:48;14.38;;;7.90;;
77520;SDS011;66633;47.628;19.158;2023-03-02T11:42:18;10.45;;;5.30;;
77520;SDS011;66633;47.628;19.158;2023-03-02T11:44:44;9.25;;;4.97;;
77520;SDS011;66633;47.628;19.158;2023-03-02T11:47:10;9.32;;;5.10;;
77520;SDS011;66633;47.628;19.158;2023-03-02T11:49:45;9.10;;;4.75;;
77520;SDS011;66633;47.628;19.158;2023-03-02T11:54:42;9.00;;;4.32;;
77520;SDS011;66633;47.628;19.158;2023-03-02T11:57:15;8.00;;;4.22;;
77520;SDS011;66633;47.628;19.158;2023-03-02T11:59:41;9.77;;;4.57;;
77520;SDS011;66633;47.628;19.158;2023-03-02T12:02:07;10.95;;;4.72;;
77520;SDS011;66633;47.628;19.158;2023-03-02T12:04:36;9.63;;;4.60;;
77520;SDS011;66633;47.628;19.158;2023-03-02T12:07:03;8.57;;;4.30;;
77520;SDS011;66633;47.628;19.158;2023-03-02T12:09:39;9.43;;;4.50;;
77520;SDS011;66633;47.628;19.158;2023-03-02T12:14:50;10.02;;;5.20;;
77520;SDS011;66633;47.628;19.158;2023-03-02T12:19:54;9.77;;;4.60;;
77520;SDS011;66633;47.628;19.158;2023-03-02T12:22:30;8.43;;;5.13;;
77520;SDS011;66633;47.628;19.158;2023-03-02T12:27:32;10.38;;;5.93;;
77520;SDS011;66633;47.628;19.158;2023-03-02T12:32:32;10.57;;;6.45;;
77520;SDS011;66633;47.628;19.158;2023-03-02T12:37:33;11.45;;;5.82;;
77520;SDS011;66633;47.628;19.158;2023-03-02T12:45:13;11.20;;;5.82;;
77520;SDS011;66633;47.628;19.158;2023-03-02T12:47:40;10.55;;;4.57;;
77520;SDS011;66633;47.628;19.158;2023-03-02T12:50:16;10.80;;;6.28;;
77520;SDS011;66633;47.628;19.158;2023-03-02T12:52:42;10.35;;;5.72;;
77520;SDS011;66633;47.628;19.158;2023-03-02T12:57:37;10.57;;;5.65;;
77520;SDS011;66633;47.628;19.158;2023-03-02T13:00:03;11.55;;;4.93;;
77520;SDS011;66633;47.628;19.158;2023-03-02T13:02:33;9.27;;;4.10;;
77520;SDS011;66633;47.628;19.158;2023-03-02T13:05:04;8.70;;;4.75;;
77520;SDS011;66633;47.628;19.158;2023-03-02T13:07:41;9.25;;;4.50;;
77520;SDS011;66633;47.628;19.158;2023-03-02T13:10:11;8.52;;;4.75;;
77520;SDS011;66633;47.628;19.158;2023-03-02T13:12:43;10.43;;;4.82;;
77520;SDS011;66633;47.628;19.158;2023-03-02T13:15:12;11.15;;;5.53;;
77520;SDS011;66633;47.628;19.158;2023-03-02T13:17:37;9.48;;;4.75;;
77520;SDS011;66633;47.628;19.158;2023-03-02T13:20:03;8.87;;;5.03;;
77520;SDS011;66633;47.628;19.158;2023-03-02T13:22:28;9.52;;;4.88;;
77520;SDS011;66633;47.628;19.158;2023-03-02T13:29:49;9.70;;;5.10;;
77520;SDS011;66633;47.628;19.158;2023-03-02T13:34:45;10.40;;;5.60;;
77520;SDS011;66633;47.628;19.158;2023-03-02T13:39:57;9.32;;;5.03;;
77520;SDS011;66633;47.628;19.158;2023-03-02T13:42:27;8.82;;;4.90;;
77520;SDS011;66633;47.628;19.158;2023-03-02T13:44:53;12.20;;;5.75;;
77520;SDS011;66633;47.628;19.158;2023-03-02T13:47:22;9.65;;;4.82;;
77520;SDS011;66633;47.628;19.158;2023-03-02T13:49:47;9.02;;;4.47;;
77520;SDS011;66633;47.628;19.158;2023-03-02T13:52:20;9.63;;;4.60;;
77520;SDS011;66633;47.628;19.158;2023-03-02T13:54:46;9.48;;;5.07;;
77520;SDS011;66633;47.628;19.158;2023-03-02T13:57:15;9.35;;;5.10;;
77520;SDS011;66633;47.628;19.158;2023-03-02T13:59:43;9.18;;;5.18;;
77520;SDS011;66633;47.628;19.158;2023-03-02T14:02:20;11.85;;;5.97;;
77520;SDS011;66633;47.628;19.158;2023-03-02T14:04:46;10.02;;;5.18;;
77520;SDS011;66633;47.628;19.158;2023-03-02T14:07:11;9.52;;;5.22;;
77520;SDS011;66633;47.628;19.158;2023-03-02T14:09:37;7.50;;;4.23;;
77520;SDS011;66633;47.628;19.158;2023-03-02T14:12:02;8.67;;;5.07;;
77520;SDS011;66633;47.628;19.158;2023-03-02T14:14:29;8.32;;;4.32;;
77520;SDS011;66633;47.628;19.158;2023-03-02T14:16:56;9.23;;;4.20;;
77520;SDS011;66633;47.628;19.158;2023-03-02T14:19:21;11.10;;;4.50;;
77520;SDS011;66633;47.628;19.158;2023-03-02T14:21:47;9.80;;;4.90;;
77520;SDS011;66633;47.628;19.158;2023-03-02T14:24:12;9.55;;;4.50;;
77520;SDS011;66633;47.628;19.158;2023-03-02T14:26:39;12.23;;;6.83;;
77520;SDS011;66633;47.628;19.158;2023-03-02T14:31:36;7.63;;;4.28;;
77520;SDS011;66633;47.628;19.158;2023-03-02T14:34:01;9.90;;;4.83;;
77520;SDS011;66633;47.628;19.158;2023-03-02T14:36:28;11.90;;;6.90;;
77520;SDS011;66633;47.628;19.158;2023-03-02T14:38:57;8.50;;;3.95;;
77520;SDS011;66633;47.628;19.158;2023-03-02T14:41:24;7.28;;;3.75;;
77520;SDS011;66633;47.628;19.158;2023-03-02T14:43:50;7.80;;;3.70;;
77520;SDS011;66633;47.628;19.158;2023-03-02T14:46:16;7.97;;;4.07;;
77520;SDS011;66633;47.628;19.158;2023-03-02T14:48:41;8.48;;;3.80;;
77520;SDS011;66633;47.628;19.158;2023-03-02T14:51:26;8.32;;;4.20;;
77520;SDS011;66633;47.628;19.158;2023-03-02T14:53:52;7.88;;;3.72;;
77520;SDS011;66633;47.628;19.158;2023-03-02T14:56:18;7.90;;;4.22;;
77520;SDS011;66633;47.628;19.158;2023-03-02T14:58:44;8.40;;;4.40;;
77520;SDS011;66633;47.628;19.158;2023-03-02T15:01:10;7.78;;;4.20;;
77520;SDS011;66633;47.628;19.158;2023-03-02T15:03:36;8.20;;;3.72;;
77520;SDS011;66633;47.628;19.158;2023-03-02T15:06:01;8.45;;;4.03;;
77520;SDS011;66633;47.628;19.158;2023-03-02T15:08:26;7.38;;;3.92;;
77520;SDS011;66633;47.628;19.158;2023-03-02T15:10:52;7.65;;;3.90;;
77520;SDS011;66633;47.628;19.158;2023-03-02T15:13:17;6.27;;;2.57;;
77520;SDS011;66633;47.628;19.158;2023-03-02T15:15:43;7.28;;;3.53;;
77520;SDS011;66633;47.628;19.158;2023-03-02T15:18:09;10.95;;;3.58;;
77520;SDS011;66633;47.628;19.158;2023-03-02T15:20:35;7.40;;;3.72;;
77520;SDS011;66633;47.628;19.158;2023-03-02T15:23:01;7.18;;;3.47;;
77520;SDS011;66633;47.628;19.158;2023-03-02T15:25:26;12.57;;;4.50;;
77520;SDS011;66633;47.628;19.158;2023-03-02T15:27:53;7.50;;;3.53;;
77520;SDS011;66633;47.628;19.158;2023-03-02T15:30:18;8.63;;;3.55;;
77520;SDS011;66633;47.628;19.158;2023-03-02T15:32:44;9.27;;;3.92;;
77520;SDS011;66633;47.628;19.158;2023-03-02T15:35:09;9.27;;;3.67;;
77520;SDS011;66633;47.628;19.158;2023-03-02T15:37:36;9.07;;;3.10;;
77520;SDS011;66633;47.628;19.158;2023-03-02T15:40:02;9.23;;;3.95;;
77520;SDS011;66633;47.628;19.158;2023-03-02T15:42:27;8.98;;;4.00;;